KMDJ/MDJ METAR and TAF weather

Enter ICAO airport designator
Station Type Date Time Source
KMDJ METAR 2021/08/04 18:35 UTC NOAA

KMDJ 041835Z AUTO 32007KT 10SM 28/25 A2992 RMK A01


Station Type Date Time Source
KMDJ Decoded METAR 2021/08/04 18:35 UTC NOAA

Mississippi Canyon, LA, United States (KMDJ) 28-38-33N 089-47-39W
Aug 04, 2021 - 02:35 PM EDT / 2021.08.04 1835 UTC
Wind: from the NW (320 degrees) at 8 MPH (7 KT):0
Visibility: 10 mile(s):0
Temperature: 82 F (28 C)
Dew Point: 77 F (25 C)
Relative Humidity: 83%
Pressure (altimeter): 29.92 in. Hg (1013 hPa)
ob: KMDJ 041835Z AUTO 32007KT 10SM 28/25 A2992 RMK A01
cycle: 18

Station Type Date Time Source
KMDJ TAF UTC NOAA

Error!

Example: see airport list